sensor_id;sensor_type;location;lat;lon;timestamp;P1;durP1;ratioP1;P2;durP2;ratioP2
24419;SDS011;12599;52.426;13.330;2022-07-29T00:02:17;6.37;;;3.10;;
24419;SDS011;12599;52.426;13.330;2022-07-29T00:04:43;11.03;;;3.27;;
24419;SDS011;12599;52.426;13.330;2022-07-29T00:07:08;9.03;;;2.97;;
24419;SDS011;12599;52.426;13.330;2022-07-29T00:09:34;6.30;;;3.20;;
24419;SDS011;12599;52.426;13.330;2022-07-29T00:12:00;8.07;;;3.40;;
24419;SDS011;12599;52.426;13.330;2022-07-29T00:14:27;5.80;;;3.60;;
24419;SDS011;12599;52.426;13.330;2022-07-29T00:16:53;7.00;;;3.27;;
24419;SDS011;12599;52.426;13.330;2022-07-29T00:19:19;10.67;;;3.97;;
24419;SDS011;12599;52.426;13.330;2022-07-29T00:21:44;6.33;;;3.00;;
24419;SDS011;12599;52.426;13.330;2022-07-29T00:24:10;8.23;;;3.27;;
24419;SDS011;12599;52.426;13.330;2022-07-29T00:26:35;6.13;;;3.47;;
24419;SDS011;12599;52.426;13.330;2022-07-29T00:29:02;6.43;;;3.00;;
24419;SDS011;12599;52.426;13.330;2022-07-29T00:31:28;7.77;;;3.07;;
24419;SDS011;12599;52.426;13.330;2022-07-29T00:33:54;8.77;;;3.80;;
24419;SDS011;12599;52.426;13.330;2022-07-29T00:36:20;9.90;;;3.40;;
24419;SDS011;12599;52.426;13.330;2022-07-29T00:38:47;8.97;;;3.30;;
24419;SDS011;12599;52.426;13.330;2022-07-29T00:41:13;6.47;;;3.37;;
24419;SDS011;12599;52.426;13.330;2022-07-29T00:43:39;12.40;;;4.00;;
24419;SDS011;12599;52.426;13.330;2022-07-29T00:46:05;7.17;;;3.67;;
24419;SDS011;12599;52.426;13.330;2022-07-29T00:48:31;6.57;;;3.37;;
24419;SDS011;12599;52.426;13.330;2022-07-29T00:50:57;8.07;;;3.53;;
24419;SDS011;12599;52.426;13.330;2022-07-29T00:53:24;6.43;;;3.27;;
24419;SDS011;12599;52.426;13.330;2022-07-29T00:55:50;5.67;;;3.03;;
24419;SDS011;12599;52.426;13.330;2022-07-29T00:58:16;6.60;;;3.63;;
24419;SDS011;12599;52.426;13.330;2022-07-29T01:00:41;4.67;;;3.47;;
24419;SDS011;12599;52.426;13.330;2022-07-29T01:03:07;6.90;;;3.27;;
24419;SDS011;12599;52.426;13.330;2022-07-29T01:05:34;6.53;;;3.80;;
24419;SDS011;12599;52.426;13.330;2022-07-29T01:08:00;7.73;;;3.43;;
24419;SDS011;12599;52.426;13.330;2022-07-29T01:10:26;6.37;;;3.10;;
24419;SDS011;12599;52.426;13.330;2022-07-29T01:12:54;6.83;;;3.63;;
24419;SDS011;12599;52.426;13.330;2022-07-29T01:15:23;6.77;;;3.40;;
24419;SDS011;12599;52.426;13.330;2022-07-29T01:24:28;11.93;;;3.70;;
24419;SDS011;12599;52.426;13.330;2022-07-29T01:30:05;6.00;;;3.57;;
24419;SDS011;12599;52.426;13.330;2022-07-29T01:32:32;6.37;;;3.40;;
24419;SDS011;12599;52.426;13.330;2022-07-29T01:37:45;6.00;;;3.10;;
24419;SDS011;12599;52.426;13.330;2022-07-29T01:40:29;7.53;;;3.63;;
24419;SDS011;12599;52.426;13.330;2022-07-29T01:43:20;9.53;;;3.80;;
24419;SDS011;12599;52.426;13.330;2022-07-29T01:45:56;5.70;;;3.37;;
24419;SDS011;12599;52.426;13.330;2022-07-29T01:48:34;9.17;;;3.50;;
24419;SDS011;12599;52.426;13.330;2022-07-29T01:51:14;7.23;;;3.33;;
24419;SDS011;12599;52.426;13.330;2022-07-29T01:53:59;8.37;;;3.47;;
24419;SDS011;12599;52.426;13.330;2022-07-29T01:56:32;8.67;;;3.90;;
24419;SDS011;12599;52.426;13.330;2022-07-29T01:59:02;11.23;;;3.77;;
24419;SDS011;12599;52.426;13.330;2022-07-29T02:01:31;8.13;;;3.97;;
24419;SDS011;12599;52.426;13.330;2022-07-29T02:03:58;10.27;;;3.70;;
24419;SDS011;12599;52.426;13.330;2022-07-29T02:06:27;6.33;;;3.30;;
24419;SDS011;12599;52.426;13.330;2022-07-29T02:08:54;8.37;;;3.53;;
24419;SDS011;12599;52.426;13.330;2022-07-29T02:11:22;8.17;;;3.40;;
24419;SDS011;12599;52.426;13.330;2022-07-29T02:13:47;7.77;;;4.00;;
24419;SDS011;12599;52.426;13.330;2022-07-29T02:16:15;6.80;;;3.70;;
24419;SDS011;12599;52.426;13.330;2022-07-29T02:18:45;7.97;;;3.63;;
24419;SDS011;12599;52.426;13.330;2022-07-29T02:21:15;6.00;;;3.73;;
24419;SDS011;12599;52.426;13.330;2022-07-29T02:23:47;6.10;;;3.83;;
24419;SDS011;12599;52.426;13.330;2022-07-29T02:26:14;7.03;;;3.30;;
24419;SDS011;12599;52.426;13.330;2022-07-29T02:28:41;8.27;;;3.73;;
24419;SDS011;12599;52.426;13.330;2022-07-29T02:31:08;9.17;;;4.23;;
24419;SDS011;12599;52.426;13.330;2022-07-29T02:33:34;7.77;;;3.50;;
24419;SDS011;12599;52.426;13.330;2022-07-29T02:36:01;7.00;;;3.73;;
24419;SDS011;12599;52.426;13.330;2022-07-29T02:38:28;4.83;;;2.93;;
24419;SDS011;12599;52.426;13.330;2022-07-29T02:41:15;7.80;;;3.13;;
24419;SDS011;12599;52.426;13.330;2022-07-29T02:44:03;8.60;;;3.03;;
24419;SDS011;12599;52.426;13.330;2022-07-29T02:46:34;4.70;;;3.47;;
24419;SDS011;12599;52.426;13.330;2022-07-29T02:49:06;9.77;;;3.77;;
24419;SDS011;12599;52.426;13.330;2022-07-29T02:51:52;8.30;;;3.33;;
24419;SDS011;12599;52.426;13.330;2022-07-29T02:54:30;7.13;;;3.40;;
24419;SDS011;12599;52.426;13.330;2022-07-29T02:57:03;7.03;;;3.60;;
24419;SDS011;12599;52.426;13.330;2022-07-29T02:59:43;5.50;;;3.17;;
24419;SDS011;12599;52.426;13.330;2022-07-29T03:02:12;8.27;;;3.77;;
24419;SDS011;12599;52.426;13.330;2022-07-29T03:04:41;10.47;;;3.90;;
24419;SDS011;12599;52.426;13.330;2022-07-29T03:07:08;8.00;;;3.27;;
24419;SDS011;12599;52.426;13.330;2022-07-29T03:09:35;6.73;;;3.30;;
24419;SDS011;12599;52.426;13.330;2022-07-29T03:12:03;4.70;;;3.00;;
24419;SDS011;12599;52.426;13.330;2022-07-29T03:14:30;10.77;;;4.33;;
24419;SDS011;12599;52.426;13.330;2022-07-29T03:16:56;5.80;;;3.47;;
24419;SDS011;12599;52.426;13.330;2022-07-29T03:19:23;8.73;;;3.83;;
24419;SDS011;12599;52.426;13.330;2022-07-29T03:21:48;6.07;;;3.77;;
24419;SDS011;12599;52.426;13.330;2022-07-29T03:24:27;8.10;;;3.37;;
24419;SDS011;12599;52.426;13.330;2022-07-29T03:26:55;5.33;;;3.50;;
24419;SDS011;12599;52.426;13.330;2022-07-29T03:29:21;6.83;;;3.70;;
24419;SDS011;12599;52.426;13.330;2022-07-29T03:31:47;8.07;;;3.53;;
24419;SDS011;12599;52.426;13.330;2022-07-29T03:34:12;8.33;;;3.80;;
24419;SDS011;12599;52.426;13.330;2022-07-29T03:36:38;10.60;;;3.83;;
24419;SDS011;12599;52.426;13.330;2022-07-29T03:39:04;7.60;;;3.70;;
24419;SDS011;12599;52.426;13.330;2022-07-29T03:41:30;8.13;;;3.67;;
24419;SDS011;12599;52.426;13.330;2022-07-29T03:43:58;8.47;;;3.47;;
24419;SDS011;12599;52.426;13.330;2022-07-29T03:46:25;13.83;;;4.07;;
24419;SDS011;12599;52.426;13.330;2022-07-29T03:48:55;8.73;;;4.00;;
24419;SDS011;12599;52.426;13.330;2022-07-29T03:51:25;6.97;;;3.63;;
24419;SDS011;12599;52.426;13.330;2022-07-29T03:53:52;6.90;;;3.60;;
24419;SDS011;12599;52.426;13.330;2022-07-29T03:56:19;7.00;;;4.13;;
24419;SDS011;12599;52.426;13.330;2022-07-29T03:58:47;7.50;;;3.80;;
24419;SDS011;12599;52.426;13.330;2022-07-29T04:01:16;4.73;;;3.30;;
24419;SDS011;12599;52.426;13.330;2022-07-29T04:03:43;7.73;;;3.70;;
24419;SDS011;12599;52.426;13.330;2022-07-29T04:06:10;7.70;;;3.50;;
24419;SDS011;12599;52.426;13.330;2022-07-29T04:08:36;8.40;;;4.03;;
24419;SDS011;12599;52.426;13.330;2022-07-29T04:11:02;8.53;;;3.50;;
24419;SDS011;12599;52.426;13.330;2022-07-29T04:13:29;8.63;;;3.47;;
24419;SDS011;12599;52.426;13.330;2022-07-29T04:15:54;8.60;;;3.70;;
24419;SDS011;12599;52.426;13.330;2022-07-29T04:18:20;11.63;;;4.37;;
24419;SDS011;12599;52.426;13.330;2022-07-29T04:20:46;7.57;;;3.90;;
24419;SDS011;12599;52.426;13.330;2022-07-29T04:23:11;7.77;;;4.13;;
24419;SDS011;12599;52.426;13.330;2022-07-29T04:25:38;6.90;;;3.70;;
24419;SDS011;12599;52.426;13.330;2022-07-29T04:28:07;8.60;;;4.10;;
24419;SDS011;12599;52.426;13.330;2022-07-29T04:30:34;7.67;;;4.00;;
24419;SDS011;12599;52.426;13.330;2022-07-29T04:33:02;7.57;;;4.00;;
24419;SDS011;12599;52.426;13.330;2022-07-29T04:35:29;8.80;;;3.53;;
24419;SDS011;12599;52.426;13.330;2022-07-29T04:37:55;8.00;;;3.80;;
24419;SDS011;12599;52.426;13.330;2022-07-29T04:40:21;7.47;;;3.93;;
24419;SDS011;12599;52.426;13.330;2022-07-29T04:42:47;8.27;;;3.63;;
24419;SDS011;12599;52.426;13.330;2022-07-29T04:45:13;9.67;;;3.70;;
24419;SDS011;12599;52.426;13.330;2022-07-29T04:47:38;10.50;;;3.63;;
24419;SDS011;12599;52.426;13.330;2022-07-29T04:50:04;8.80;;;3.53;;
24419;SDS011;12599;52.426;13.330;2022-07-29T04:52:31;13.77;;;3.80;;
24419;SDS011;12599;52.426;13.330;2022-07-29T04:54:57;4.83;;;3.23;;
24419;SDS011;12599;52.426;13.330;2022-07-29T04:57:23;7.13;;;3.43;;
24419;SDS011;12599;52.426;13.330;2022-07-29T04:59:48;6.73;;;3.20;;
24419;SDS011;12599;52.426;13.330;2022-07-29T05:02:14;10.13;;;3.53;;
24419;SDS011;12599;52.426;13.330;2022-07-29T05:04:40;6.63;;;3.60;;
24419;SDS011;12599;52.426;13.330;2022-07-29T05:07:05;5.50;;;3.43;;
24419;SDS011;12599;52.426;13.330;2022-07-29T05:09:31;5.80;;;3.87;;
24419;SDS011;12599;52.426;13.330;2022-07-29T05:11:57;7.83;;;3.20;;
24419;SDS011;12599;52.426;13.330;2022-07-29T05:14:23;8.47;;;3.00;;
24419;SDS011;12599;52.426;13.330;2022-07-29T05:16:48;7.97;;;3.50;;
24419;SDS011;12599;52.426;13.330;2022-07-29T05:19:16;8.13;;;3.13;;
24419;SDS011;12599;52.426;13.330;2022-07-29T05:21:41;4.90;;;3.17;;
24419;SDS011;12599;52.426;13.330;2022-07-29T05:24:07;5.17;;;3.33;;
24419;SDS011;12599;52.426;13.330;2022-07-29T05:26:33;9.00;;;3.23;;
24419;SDS011;12599;52.426;13.330;2022-07-29T05:28:59;7.87;;;3.23;;
24419;SDS011;12599;52.426;13.330;2022-07-29T05:31:24;9.93;;;3.20;;
24419;SDS011;12599;52.426;13.330;2022-07-29T05:33:50;6.90;;;3.07;;
24419;SDS011;12599;52.426;13.330;2022-07-29T05:36:15;8.00;;;3.63;;
24419;SDS011;12599;52.426;13.330;2022-07-29T05:38:41;6.57;;;3.13;;
24419;SDS011;12599;52.426;13.330;2022-07-29T05:41:06;6.03;;;3.13;;
24419;SDS011;12599;52.426;13.330;2022-07-29T05:43:32;5.93;;;2.97;;
24419;SDS011;12599;52.426;13.330;2022-07-29T05:45:58;10.00;;;3.70;;
24419;SDS011;12599;52.426;13.330;2022-07-29T05:48:24;8.50;;;3.73;;
24419;SDS011;12599;52.426;13.330;2022-07-29T05:50:50;6.37;;;3.30;;
24419;SDS011;12599;52.426;13.330;2022-07-29T05:53:16;4.70;;;3.63;;
24419;SDS011;12599;52.426;13.330;2022-07-29T05:55:41;7.30;;;3.60;;
24419;SDS011;12599;52.426;13.330;2022-07-29T05:58:07;9.80;;;3.07;;
24419;SDS011;12599;52.426;13.330;2022-07-29T06:00:33;6.30;;;3.33;;
24419;SDS011;12599;52.426;13.330;2022-07-29T06:02:59;9.77;;;3.30;;
24419;SDS011;12599;52.426;13.330;2022-07-29T06:05:24;7.20;;;3.00;;
24419;SDS011;12599;52.426;13.330;2022-07-29T06:07:50;8.43;;;3.13;;
24419;SDS011;12599;52.426;13.330;2022-07-29T06:10:15;10.87;;;3.70;;
24419;SDS011;12599;52.426;13.330;2022-07-29T06:12:41;8.60;;;3.50;;
24419;SDS011;12599;52.426;13.330;2022-07-29T06:15:07;6.07;;;3.10;;
24419;SDS011;12599;52.426;13.330;2022-07-29T06:17:33;6.00;;;3.03;;
24419;SDS011;12599;52.426;13.330;2022-07-29T06:19:58;9.07;;;2.87;;
24419;SDS011;12599;52.426;13.330;2022-07-29T06:22:24;8.80;;;3.40;;
24419;SDS011;12599;52.426;13.330;2022-07-29T06:24:49;8.07;;;3.40;;
24419;SDS011;12599;52.426;13.330;2022-07-29T06:27:15;7.13;;;2.93;;
24419;SDS011;12599;52.426;13.330;2022-07-29T06:29:41;10.07;;;3.00;;
24419;SDS011;12599;52.426;13.330;2022-07-29T06:32:06;8.77;;;3.70;;
24419;SDS011;12599;52.426;13.330;2022-07-29T06:34:34;8.37;;;3.53;;
24419;SDS011;12599;52.426;13.330;2022-07-29T06:37:00;5.77;;;3.07;;
24419;SDS011;12599;52.426;13.330;2022-07-29T06:39:30;8.53;;;3.60;;
24419;SDS011;12599;52.426;13.330;2022-07-29T06:41:55;10.03;;;3.43;;
24419;SDS011;12599;52.426;13.330;2022-07-29T06:44:21;5.80;;;3.30;;
24419;SDS011;12599;52.426;13.330;2022-07-29T06:46:46;8.70;;;3.00;;
24419;SDS011;12599;52.426;13.330;2022-07-29T06:49:14;6.60;;;3.03;;
24419;SDS011;12599;52.426;13.330;2022-07-29T06:51:40;8.47;;;3.07;;
24419;SDS011;12599;52.426;13.330;2022-07-29T06:54:06;8.43;;;3.20;;
24419;SDS011;12599;52.426;13.330;2022-07-29T06:56:32;6.27;;;2.87;;
24419;SDS011;12599;52.426;13.330;2022-07-29T06:59:00;9.03;;;2.93;;
24419;SDS011;12599;52.426;13.330;2022-07-29T07:01:25;10.03;;;3.07;;
24419;SDS011;12599;52.426;13.330;2022-07-29T07:03:51;4.97;;;3.17;;
24419;SDS011;12599;52.426;13.330;2022-07-29T07:06:17;5.40;;;3.10;;
24419;SDS011;12599;52.426;13.330;2022-07-29T07:08:43;6.80;;;2.80;;
24419;SDS011;12599;52.426;13.330;2022-07-29T07:11:08;4.67;;;2.67;;
24419;SDS011;12599;52.426;13.330;2022-07-29T07:13:34;10.57;;;3.27;;
24419;SDS011;12599;52.426;13.330;2022-07-29T07:16:00;6.30;;;2.87;;
24419;SDS011;12599;52.426;13.330;2022-07-29T07:18:26;9.23;;;2.80;;
24419;SDS011;12599;52.426;13.330;2022-07-29T07:20:52;6.60;;;2.70;;
24419;SDS011;12599;52.426;13.330;2022-07-29T07:23:18;7.63;;;2.67;;
24419;SDS011;12599;52.426;13.330;2022-07-29T07:25:44;6.27;;;3.17;;
24419;SDS011;12599;52.426;13.330;2022-07-29T07:28:10;5.40;;;2.90;;
24419;SDS011;12599;52.426;13.330;2022-07-29T07:30:35;4.67;;;2.83;;
24419;SDS011;12599;52.426;13.330;2022-07-29T07:33:01;6.27;;;3.00;;
24419;SDS011;12599;52.426;13.330;2022-07-29T07:35:27;7.10;;;2.60;;
24419;SDS011;12599;52.426;13.330;2022-07-29T07:37:54;5.73;;;2.93;;
24419;SDS011;12599;52.426;13.330;2022-07-29T07:40:20;7.53;;;3.00;;
24419;SDS011;12599;52.426;13.330;2022-07-29T07:42:46;7.83;;;2.90;;
24419;SDS011;12599;52.426;13.330;2022-07-29T07:45:11;4.30;;;2.30;;
24419;SDS011;12599;52.426;13.330;2022-07-29T07:47:37;4.27;;;2.77;;
24419;SDS011;12599;52.426;13.330;2022-07-29T07:50:07;4.23;;;2.57;;
24419;SDS011;12599;52.426;13.330;2022-07-29T07:52:34;7.23;;;2.47;;
24419;SDS011;12599;52.426;13.330;2022-07-29T07:55:10;6.50;;;3.00;;
24419;SDS011;12599;52.426;13.330;2022-07-29T07:57:35;4.73;;;2.23;;
24419;SDS011;12599;52.426;13.330;2022-07-29T08:00:02;5.77;;;2.57;;
24419;SDS011;12599;52.426;13.330;2022-07-29T08:02:28;8.20;;;2.83;;
24419;SDS011;12599;52.426;13.330;2022-07-29T08:04:54;5.13;;;2.50;;
24419;SDS011;12599;52.426;13.330;2022-07-29T08:07:20;6.87;;;2.30;;
24419;SDS011;12599;52.426;13.330;2022-07-29T08:09:45;8.37;;;2.70;;
24419;SDS011;12599;52.426;13.330;2022-07-29T08:12:11;6.23;;;2.60;;
24419;SDS011;12599;52.426;13.330;2022-07-29T08:14:36;4.50;;;2.43;;
24419;SDS011;12599;52.426;13.330;2022-07-29T08:17:02;7.80;;;2.90;;
24419;SDS011;12599;52.426;13.330;2022-07-29T08:19:27;5.27;;;2.20;;
24419;SDS011;12599;52.426;13.330;2022-07-29T08:21:53;6.80;;;2.50;;
24419;SDS011;12599;52.426;13.330;2022-07-29T08:24:19;6.40;;;2.50;;
24419;SDS011;12599;52.426;13.330;2022-07-29T08:27:04;7.00;;;2.67;;
24419;SDS011;12599;52.426;13.330;2022-07-29T08:29:30;6.93;;;2.37;;
24419;SDS011;12599;52.426;13.330;2022-07-29T08:31:56;4.67;;;2.30;;
24419;SDS011;12599;52.426;13.330;2022-07-29T08:34:21;7.67;;;2.13;;
24419;SDS011;12599;52.426;13.330;2022-07-29T08:36:47;7.83;;;2.73;;
24419;SDS011;12599;52.426;13.330;2022-07-29T08:39:12;4.23;;;2.10;;
24419;SDS011;12599;52.426;13.330;2022-07-29T08:41:38;6.37;;;2.20;;
24419;SDS011;12599;52.426;13.330;2022-07-29T08:44:03;6.20;;;2.20;;
24419;SDS011;12599;52.426;13.330;2022-07-29T08:46:29;5.00;;;2.30;;
24419;SDS011;12599;52.426;13.330;2022-07-29T08:48:55;5.53;;;2.10;;
24419;SDS011;12599;52.426;13.330;2022-07-29T08:51:20;8.80;;;2.53;;
24419;SDS011;12599;52.426;13.330;2022-07-29T08:53:47;3.83;;;2.47;;
24419;SDS011;12599;52.426;13.330;2022-07-29T08:56:15;3.40;;;2.33;;
24419;SDS011;12599;52.426;13.330;2022-07-29T08:58:44;8.00;;;2.77;;
24419;SDS011;12599;52.426;13.330;2022-07-29T09:01:16;4.80;;;2.70;;
24419;SDS011;12599;52.426;13.330;2022-07-29T09:03:45;5.90;;;2.77;;
24419;SDS011;12599;52.426;13.330;2022-07-29T09:06:14;7.03;;;2.70;;
24419;SDS011;12599;52.426;13.330;2022-07-29T09:08:42;4.20;;;2.53;;
24419;SDS011;12599;52.426;13.330;2022-07-29T09:11:09;5.67;;;2.30;;
24419;SDS011;12599;52.426;13.330;2022-07-29T09:13:36;8.73;;;2.40;;
24419;SDS011;12599;52.426;13.330;2022-07-29T09:16:02;3.63;;;2.17;;
24419;SDS011;12599;52.426;13.330;2022-07-29T09:18:35;4.57;;;2.20;;
24419;SDS011;12599;52.426;13.330;2022-07-29T09:21:06;4.27;;;2.47;;
24419;SDS011;12599;52.426;13.330;2022-07-29T09:24:13;5.67;;;2.30;;
24419;SDS011;12599;52.426;13.330;2022-07-29T09:26:43;3.10;;;2.40;;
24419;SDS011;12599;52.426;13.330;2022-07-29T09:29:17;4.63;;;2.67;;
24419;SDS011;12599;52.426;13.330;2022-07-29T09:31:45;4.80;;;2.23;;
24419;SDS011;12599;52.426;13.330;2022-07-29T09:34:13;4.13;;;2.40;;
24419;SDS011;12599;52.426;13.330;2022-07-29T09:36:46;5.67;;;2.27;;
24419;SDS011;12599;52.426;13.330;2022-07-29T09:39:13;2.67;;;2.07;;
24419;SDS011;12599;52.426;13.330;2022-07-29T09:41:46;8.77;;;2.50;;
24419;SDS011;12599;52.426;13.330;2022-07-29T09:44:17;7.10;;;2.13;;
24419;SDS011;12599;52.426;13.330;2022-07-29T09:46:53;3.57;;;2.10;;
24419;SDS011;12599;52.426;13.330;2022-07-29T09:49:30;4.70;;;2.33;;
24419;SDS011;12599;52.426;13.330;2022-07-29T09:52:03;5.27;;;2.53;;
24419;SDS011;12599;52.426;13.330;2022-07-29T09:54:33;6.57;;;2.30;;
24419;SDS011;12599;52.426;13.330;2022-07-29T09:57:02;4.30;;;1.97;;
24419;SDS011;12599;52.426;13.330;2022-07-29T09:59:33;4.07;;;2.30;;
24419;SDS011;12599;52.426;13.330;2022-07-29T10:01:59;5.90;;;2.07;;
24419;SDS011;12599;52.426;13.330;2022-07-29T10:04:41;5.57;;;2.13;;
24419;SDS011;12599;52.426;13.330;2022-07-29T10:07:08;4.00;;;2.20;;
24419;SDS011;12599;52.426;13.330;2022-07-29T10:09:34;3.57;;;1.80;;
24419;SDS011;12599;52.426;13.330;2022-07-29T10:12:08;5.73;;;2.40;;
24419;SDS011;12599;52.426;13.330;2022-07-29T10:14:36;2.73;;;1.80;;
24419;SDS011;12599;52.426;13.330;2022-07-29T10:17:02;3.80;;;1.60;;
24419;SDS011;12599;52.426;13.330;2022-07-29T10:19:29;4.80;;;2.17;;
24419;SDS011;12599;52.426;13.330;2022-07-29T10:21:57;4.57;;;2.10;;
24419;SDS011;12599;52.426;13.330;2022-07-29T10:24:25;3.40;;;2.17;;
24419;SDS011;12599;52.426;13.330;2022-07-29T10:26:53;5.00;;;1.80;;
24419;SDS011;12599;52.426;13.330;2022-07-29T10:29:23;5.07;;;1.97;;
24419;SDS011;12599;52.426;13.330;2022-07-29T10:38:07;3.17;;;1.90;;
24419;SDS011;12599;52.426;13.330;2022-07-29T10:44:14;2.17;;;1.87;;
24419;SDS011;12599;52.426;13.330;2022-07-29T10:46:41;4.10;;;2.13;;
24419;SDS011;12599;52.426;13.330;2022-07-29T10:54:17;5.00;;;2.43;;
24419;SDS011;12599;52.426;13.330;2022-07-29T10:56:43;5.23;;;1.87;;
24419;SDS011;12599;52.426;13.330;2022-07-29T11:01:46;6.00;;;2.23;;
24419;SDS011;12599;52.426;13.330;2022-07-29T11:04:13;3.33;;;2.30;;
24419;SDS011;12599;52.426;13.330;2022-07-29T11:09:27;2.83;;;1.93;;
24419;SDS011;12599;52.426;13.330;2022-07-29T11:11:55;6.93;;;2.13;;
24419;SDS011;12599;52.426;13.330;2022-07-29T11:17:17;4.20;;;2.10;;
24419;SDS011;12599;52.426;13.330;2022-07-29T11:19:43;5.20;;;2.50;;
24419;SDS011;12599;52.426;13.330;2022-07-29T11:22:09;4.93;;;2.07;;
24419;SDS011;12599;52.426;13.330;2022-07-29T11:24:36;5.03;;;2.40;;
24419;SDS011;12599;52.426;13.330;2022-07-29T11:27:18;5.27;;;2.33;;
24419;SDS011;12599;52.426;13.330;2022-07-29T11:32:15;4.50;;;2.03;;
24419;SDS011;12599;52.426;13.330;2022-07-29T11:34:44;7.80;;;2.60;;
24419;SDS011;12599;52.426;13.330;2022-07-29T11:45:03;6.63;;;2.70;;
24419;SDS011;12599;52.426;13.330;2022-07-29T11:47:35;7.00;;;2.90;;
24419;SDS011;12599;52.426;13.330;2022-07-29T11:50:03;3.00;;;2.50;;
24419;SDS011;12599;52.426;13.330;2022-07-29T11:52:34;2.93;;;2.17;;
24419;SDS011;12599;52.426;13.330;2022-07-29T11:55:02;7.37;;;3.00;;
24419;SDS011;12599;52.426;13.330;2022-07-29T11:57:29;7.30;;;2.90;;
24419;SDS011;12599;52.426;13.330;2022-07-29T11:59:55;4.33;;;2.63;;
24419;SDS011;12599;52.426;13.330;2022-07-29T12:02:23;5.33;;;2.83;;
24419;SDS011;12599;52.426;13.330;2022-07-29T12:04:53;7.23;;;2.70;;
24419;SDS011;12599;52.426;13.330;2022-07-29T12:07:32;4.60;;;2.67;;
24419;SDS011;12599;52.426;13.330;2022-07-29T12:09:59;3.07;;;2.77;;
24419;SDS011;12599;52.426;13.330;2022-07-29T12:12:25;5.10;;;2.90;;
24419;SDS011;12599;52.426;13.330;2022-07-29T12:14:52;5.87;;;2.67;;
24419;SDS011;12599;52.426;13.330;2022-07-29T12:17:26;10.23;;;3.07;;
24419;SDS011;12599;52.426;13.330;2022-07-29T12:19:58;4.53;;;2.90;;
24419;SDS011;12599;52.426;13.330;2022-07-29T12:22:46;6.93;;;3.30;;
24419;SDS011;12599;52.426;13.330;2022-07-29T12:25:13;4.00;;;2.70;;
24419;SDS011;12599;52.426;13.330;2022-07-29T12:27:41;3.87;;;2.60;;
24419;SDS011;12599;52.426;13.330;2022-07-29T12:30:09;6.30;;;2.90;;
24419;SDS011;12599;52.426;13.330;2022-07-29T12:32:38;7.00;;;2.80;;
24419;SDS011;12599;52.426;13.330;2022-07-29T12:35:06;4.93;;;3.00;;
24419;SDS011;12599;52.426;13.330;2022-07-29T12:37:34;5.97;;;2.83;;
24419;SDS011;12599;52.426;13.330;2022-07-29T12:40:05;3.33;;;2.50;;
24419;SDS011;12599;52.426;13.330;2022-07-29T12:42:32;5.50;;;2.83;;
24419;SDS011;12599;52.426;13.330;2022-07-29T12:44:58;3.27;;;2.50;;
24419;SDS011;12599;52.426;13.330;2022-07-29T12:47:24;3.97;;;2.60;;
24419;SDS011;12599;52.426;13.330;2022-07-29T12:49:50;4.33;;;2.87;;
24419;SDS011;12599;52.426;13.330;2022-07-29T12:52:32;3.97;;;2.73;;
24419;SDS011;12599;52.426;13.330;2022-07-29T12:54:59;8.17;;;2.63;;
24419;SDS011;12599;52.426;13.330;2022-07-29T12:57:25;3.30;;;2.57;;
24419;SDS011;12599;52.426;13.330;2022-07-29T13:02:35;4.83;;;2.70;;
24419;SDS011;12599;52.426;13.330;2022-07-29T13:05:02;6.47;;;2.73;;
24419;SDS011;12599;52.426;13.330;2022-07-29T13:07:29;6.13;;;2.83;;
24419;SDS011;12599;52.426;13.330;2022-07-29T13:10:10;6.47;;;2.93;;
24419;SDS011;12599;52.426;13.330;2022-07-29T13:15:38;6.03;;;2.80;;
24419;SDS011;12599;52.426;13.330;2022-07-29T13:18:26;4.67;;;2.83;;
24419;SDS011;12599;52.426;13.330;2022-07-29T13:20:55;5.33;;;3.10;;
24419;SDS011;12599;52.426;13.330;2022-07-29T13:23:21;3.70;;;2.83;;
24419;SDS011;12599;52.426;13.330;2022-07-29T13:25:47;4.23;;;2.90;;
24419;SDS011;12599;52.426;13.330;2022-07-29T13:28:13;6.67;;;3.07;;
24419;SDS011;12599;52.426;13.330;2022-07-29T13:30:41;8.10;;;2.83;;
24419;SDS011;12599;52.426;13.330;2022-07-29T13:33:08;8.07;;;3.00;;
24419;SDS011;12599;52.426;13.330;2022-07-29T13:35:33;7.67;;;3.10;;
24419;SDS011;12599;52.426;13.330;2022-07-29T13:37:59;4.53;;;2.80;;
24419;SDS011;12599;52.426;13.330;2022-07-29T13:40:24;3.97;;;2.70;;
24419;SDS011;12599;52.426;13.330;2022-07-29T13:42:50;7.57;;;2.97;;
24419;SDS011;12599;52.426;13.330;2022-07-29T13:45:16;7.73;;;2.97;;
24419;SDS011;12599;52.426;13.330;2022-07-29T13:47:42;4.50;;;2.73;;
24419;SDS011;12599;52.426;13.330;2022-07-29T13:50:08;8.03;;;2.83;;
24419;SDS011;12599;52.426;13.330;2022-07-29T13:52:35;7.10;;;3.27;;
24419;SDS011;12599;52.426;13.330;2022-07-29T13:55:03;6.10;;;2.80;;
24419;SDS011;12599;52.426;13.330;2022-07-29T13:57:29;4.27;;;2.97;;
24419;SDS011;12599;52.426;13.330;2022-07-29T13:59:55;3.93;;;2.50;;
24419;SDS011;12599;52.426;13.330;2022-07-29T14:02:21;3.30;;;2.60;;
24419;SDS011;12599;52.426;13.330;2022-07-29T14:04:47;4.17;;;3.03;;
24419;SDS011;12599;52.426;13.330;2022-07-29T14:07:12;5.60;;;3.00;;
24419;SDS011;12599;52.426;13.330;2022-07-29T14:09:38;4.13;;;2.87;;
24419;SDS011;12599;52.426;13.330;2022-07-29T14:12:04;4.47;;;2.83;;
24419;SDS011;12599;52.426;13.330;2022-07-29T14:14:29;3.90;;;2.90;;
24419;SDS011;12599;52.426;13.330;2022-07-29T14:16:57;5.73;;;2.97;;
24419;SDS011;12599;52.426;13.330;2022-07-29T14:19:23;6.47;;;3.10;;
24419;SDS011;12599;52.426;13.330;2022-07-29T14:21:48;4.27;;;2.80;;
24419;SDS011;12599;52.426;13.330;2022-07-29T14:24:14;5.33;;;2.90;;
24419;SDS011;12599;52.426;13.330;2022-07-29T14:26:39;7.30;;;2.83;;
24419;SDS011;12599;52.426;13.330;2022-07-29T14:29:05;6.50;;;3.00;;
24419;SDS011;12599;52.426;13.330;2022-07-29T14:31:30;6.40;;;2.80;;
24419;SDS011;12599;52.426;13.330;2022-07-29T14:33:56;5.80;;;2.80;;
24419;SDS011;12599;52.426;13.330;2022-07-29T14:36:21;4.60;;;3.00;;
24419;SDS011;12599;52.426;13.330;2022-07-29T14:38:47;5.07;;;2.67;;
24419;SDS011;12599;52.426;13.330;2022-07-29T14:41:12;4.03;;;2.63;;
24419;SDS011;12599;52.426;13.330;2022-07-29T14:43:38;4.33;;;2.90;;
24419;SDS011;12599;52.426;13.330;2022-07-29T14:46:04;3.13;;;2.33;;
24419;SDS011;12599;52.426;13.330;2022-07-29T14:48:29;4.63;;;2.90;;
24419;SDS011;12599;52.426;13.330;2022-07-29T14:50:55;4.53;;;2.57;;
24419;SDS011;12599;52.426;13.330;2022-07-29T14:53:21;4.93;;;2.60;;
24419;SDS011;12599;52.426;13.330;2022-07-29T14:55:47;4.63;;;2.60;;
24419;SDS011;12599;52.426;13.330;2022-07-29T14:58:12;3.83;;;2.57;;
24419;SDS011;12599;52.426;13.330;2022-07-29T15:00:38;5.70;;;2.13;;
24419;SDS011;12599;52.426;13.330;2022-07-29T15:03:04;5.10;;;2.73;;
24419;SDS011;12599;52.426;13.330;2022-07-29T15:05:30;3.50;;;2.80;;
24419;SDS011;12599;52.426;13.330;2022-07-29T15:07:57;7.13;;;2.83;;
24419;SDS011;12599;52.426;13.330;2022-07-29T15:10:23;6.00;;;3.27;;
24419;SDS011;12599;52.426;13.330;2022-07-29T15:12:51;4.37;;;2.73;;
24419;SDS011;12599;52.426;13.330;2022-07-29T15:15:17;5.30;;;2.97;;
24419;SDS011;12599;52.426;13.330;2022-07-29T15:17:43;4.73;;;2.50;;
24419;SDS011;12599;52.426;13.330;2022-07-29T15:20:09;5.10;;;2.60;;
24419;SDS011;12599;52.426;13.330;2022-07-29T15:22:35;5.83;;;2.80;;
24419;SDS011;12599;52.426;13.330;2022-07-29T15:25:00;4.03;;;2.77;;
24419;SDS011;12599;52.426;13.330;2022-07-29T15:27:26;7.37;;;2.90;;
24419;SDS011;12599;52.426;13.330;2022-07-29T15:29:51;5.77;;;2.70;;